sensor_id;sensor_type;location;lat;lon;timestamp;pressure;altitude;pressure_sealevel;temperature;humidity
62864;BME280;48954;59.950;11.014;2023-09-19T00:01:16;97891.77;;;14.99;96.31
62864;BME280;48954;59.950;11.014;2023-09-19T00:03:52;97882.91;;;14.99;96.34
62864;BME280;48954;59.950;11.014;2023-09-19T00:06:46;97880.52;;;15.00;96.31
62864;BME280;48954;59.950;11.014;2023-09-19T00:09:34;97879.80;;;15.01;96.32
62864;BME280;48954;59.950;11.014;2023-09-19T00:12:15;97875.03;;;15.01;96.35
62864;BME280;48954;59.950;11.014;2023-09-19T00:14:58;97871.92;;;15.03;96.40
62864;BME280;48954;59.950;11.014;2023-09-19T00:17:25;97864.20;;;15.05;96.60
62864;BME280;48954;59.950;11.014;2023-09-19T00:19:53;97867.27;;;15.07;96.48
62864;BME280;48954;59.950;11.014;2023-09-19T00:22:33;97860.06;;;15.08;96.49
62864;BME280;48954;59.950;11.014;2023-09-19T00:25:12;97855.69;;;15.09;96.31
62864;BME280;48954;59.950;11.014;2023-09-19T00:27:41;97847.95;;;15.08;96.26
62864;BME280;48954;59.950;11.014;2023-09-19T00:30:23;97845.01;;;15.09;96.24
62864;BME280;48954;59.950;11.014;2023-09-19T00:33:08;97845.34;;;15.09;96.20
62864;BME280;48954;59.950;11.014;2023-09-19T00:35:52;97845.64;;;15.09;96.22
62864;BME280;48954;59.950;11.014;2023-09-19T00:38:22;97841.45;;;15.09;96.28
62864;BME280;48954;59.950;11.014;2023-09-19T00:40:54;97834.02;;;15.09;96.24
62864;BME280;48954;59.950;11.014;2023-09-19T00:43:22;97832.34;;;15.09;96.26
62864;BME280;48954;59.950;11.014;2023-09-19T00:46:03;97831.16;;;15.09;96.13
62864;BME280;48954;59.950;11.014;2023-09-19T00:48:32;97825.86;;;15.09;96.10
62864;BME280;48954;59.950;11.014;2023-09-19T00:51:20;97824.52;;;15.09;96.09
62864;BME280;48954;59.950;11.014;2023-09-19T00:53:55;97828.08;;;15.09;95.99
62864;BME280;48954;59.950;11.014;2023-09-19T00:56:28;97827.04;;;15.09;96.04
62864;BME280;48954;59.950;11.014;2023-09-19T00:59:09;97821.17;;;15.10;96.20
62864;BME280;48954;59.950;11.014;2023-09-19T01:01:59;97806.70;;;15.10;96.12
62864;BME280;48954;59.950;11.014;2023-09-19T01:04:40;97794.31;;;15.09;96.15
62864;BME280;48954;59.950;11.014;2023-09-19T01:07:13;97790.70;;;15.08;95.94
62864;BME280;48954;59.950;11.014;2023-09-19T01:09:41;97787.94;;;15.07;95.82
62864;BME280;48954;59.950;11.014;2023-09-19T01:12:28;97783.42;;;15.05;95.78
62864;BME280;48954;59.950;11.014;2023-09-19T01:15:02;97781.90;;;15.03;95.64
62864;BME280;48954;59.950;11.014;2023-09-19T01:17:50;97774.91;;;15.01;95.63
62864;BME280;48954;59.950;11.014;2023-09-19T01:30:19;97758.29;;;14.93;95.52
62864;BME280;48954;59.950;11.014;2023-09-19T01:33:02;97751.13;;;14.91;95.45
62864;BME280;48954;59.950;11.014;2023-09-19T01:35:43;97739.06;;;14.90;95.53
62864;BME280;48954;59.950;11.014;2023-09-19T01:38:23;97732.04;;;14.89;95.47
62864;BME280;48954;59.950;11.014;2023-09-19T01:41:29;97731.44;;;14.88;95.39
62864;BME280;48954;59.950;11.014;2023-09-19T01:44:34;97725.38;;;14.87;95.55
62864;BME280;48954;59.950;11.014;2023-09-19T01:47:33;97722.56;;;14.86;95.38
62864;BME280;48954;59.950;11.014;2023-09-19T01:53:10;97713.08;;;14.80;95.06
62864;BME280;48954;59.950;11.014;2023-09-19T01:55:58;97710.46;;;14.78;95.08
62864;BME280;48954;59.950;11.014;2023-09-19T01:58:41;97710.21;;;14.75;95.06
62864;BME280;48954;59.950;11.014;2023-09-19T02:01:24;97702.80;;;14.72;95.17
62864;BME280;48954;59.950;11.014;2023-09-19T02:04:05;97698.73;;;14.69;95.18
62864;BME280;48954;59.950;11.014;2023-09-19T02:06:57;97697.80;;;14.69;95.31
62864;BME280;48954;59.950;11.014;2023-09-19T02:10:00;97693.55;;;14.68;95.34
62864;BME280;48954;59.950;11.014;2023-09-19T02:12:40;97686.73;;;14.69;95.58
62864;BME280;48954;59.950;11.014;2023-09-19T02:15:25;97681.47;;;14.71;95.71
62864;BME280;48954;59.950;11.014;2023-09-19T02:18:10;97672.01;;;14.73;95.67
62864;BME280;48954;59.950;11.014;2023-09-19T02:20:53;97665.25;;;14.74;95.63
62864;BME280;48954;59.950;11.014;2023-09-19T02:23:41;97663.40;;;14.75;95.62
62864;BME280;48954;59.950;11.014;2023-09-19T02:26:22;97655.96;;;14.76;95.67
62864;BME280;48954;59.950;11.014;2023-09-19T02:29:05;97643.12;;;14.77;95.70
62864;BME280;48954;59.950;11.014;2023-09-19T02:31:45;97639.52;;;14.78;95.78
62864;BME280;48954;59.950;11.014;2023-09-19T02:34:30;97636.89;;;14.79;95.88
62864;BME280;48954;59.950;11.014;2023-09-19T02:37:12;97629.09;;;14.81;95.79
62864;BME280;48954;59.950;11.014;2023-09-19T02:39:41;97627.00;;;14.81;95.69
62864;BME280;48954;59.950;11.014;2023-09-19T02:42:24;97620.73;;;14.83;95.78
62864;BME280;48954;59.950;11.014;2023-09-19T02:45:05;97616.81;;;14.84;95.86
62864;BME280;48954;59.950;11.014;2023-09-19T02:47:50;97602.31;;;14.85;95.98
62864;BME280;48954;59.950;11.014;2023-09-19T02:50:22;97587.73;;;14.86;95.92
62864;BME280;48954;59.950;11.014;2023-09-19T02:53:11;97588.55;;;14.88;95.93
62864;BME280;48954;59.950;11.014;2023-09-19T02:55:41;97577.09;;;14.88;95.89
62864;BME280;48954;59.950;11.014;2023-09-19T02:58:10;97578.97;;;14.89;95.90
62864;BME280;48954;59.950;11.014;2023-09-19T03:00:37;97569.54;;;14.89;95.94
62864;BME280;48954;59.950;11.014;2023-09-19T03:03:09;97552.84;;;14.89;95.87
62864;BME280;48954;59.950;11.014;2023-09-19T03:05:50;97547.15;;;14.90;95.89
62864;BME280;48954;59.950;11.014;2023-09-19T03:08:30;97530.70;;;14.90;95.95
62864;BME280;48954;59.950;11.014;2023-09-19T03:10:58;97513.86;;;14.90;96.00
62864;BME280;48954;59.950;11.014;2023-09-19T03:13:35;97506.36;;;14.89;95.88
62864;BME280;48954;59.950;11.014;2023-09-19T03:16:17;97504.60;;;14.90;95.87
62864;BME280;48954;59.950;11.014;2023-09-19T03:18:46;97497.80;;;14.90;95.96
62864;BME280;48954;59.950;11.014;2023-09-19T03:21:32;97491.58;;;14.89;95.87
62864;BME280;48954;59.950;11.014;2023-09-19T03:23:59;97491.34;;;14.89;95.94
62864;BME280;48954;59.950;11.014;2023-09-19T03:26:40;97489.39;;;14.88;95.95
62864;BME280;48954;59.950;11.014;2023-09-19T03:29:20;97478.66;;;14.87;95.91
62864;BME280;48954;59.950;11.014;2023-09-19T03:31:50;97470.70;;;14.87;96.00
62864;BME280;48954;59.950;11.014;2023-09-19T03:34:25;97466.35;;;14.86;96.01
62864;BME280;48954;59.950;11.014;2023-09-19T03:36:52;97458.39;;;14.86;96.03
62864;BME280;48954;59.950;11.014;2023-09-19T03:39:21;97447.48;;;14.85;96.06
62864;BME280;48954;59.950;11.014;2023-09-19T03:41:50;97435.80;;;14.85;96.04
62864;BME280;48954;59.950;11.014;2023-09-19T03:44:17;97438.75;;;14.84;96.07
62864;BME280;48954;59.950;11.014;2023-09-19T03:46:45;97431.48;;;14.84;96.12
62864;BME280;48954;59.950;11.014;2023-09-19T03:52:19;97410.87;;;14.83;96.10
62864;BME280;48954;59.950;11.014;2023-09-19T03:54:47;97406.22;;;14.83;96.08
62864;BME280;48954;59.950;11.014;2023-09-19T03:57:16;97404.10;;;14.82;96.04
62864;BME280;48954;59.950;11.014;2023-09-19T03:59:44;97399.02;;;14.83;96.06
62864;BME280;48954;59.950;11.014;2023-09-19T04:02:23;97391.61;;;14.82;96.16
62864;BME280;48954;59.950;11.014;2023-09-19T04:04:53;97383.00;;;14.82;96.09
62864;BME280;48954;59.950;11.014;2023-09-19T04:07:19;97370.36;;;14.82;96.09
62864;BME280;48954;59.950;11.014;2023-09-19T04:09:53;97356.67;;;14.82;96.11
62864;BME280;48954;59.950;11.014;2023-09-19T04:12:19;97348.04;;;14.80;96.03
62864;BME280;48954;59.950;11.014;2023-09-19T04:14:46;97340.20;;;14.81;96.17
62864;BME280;48954;59.950;11.014;2023-09-19T04:17:17;97328.05;;;14.80;96.04
62864;BME280;48954;59.950;11.014;2023-09-19T04:19:46;97326.84;;;14.80;96.08
62864;BME280;48954;59.950;11.014;2023-09-19T04:22:16;97325.22;;;14.79;96.02
62864;BME280;48954;59.950;11.014;2023-09-19T04:24:43;97316.46;;;14.79;96.10
62864;BME280;48954;59.950;11.014;2023-09-19T04:27:11;97313.78;;;14.79;96.00
62864;BME280;48954;59.950;11.014;2023-09-19T04:29:41;97310.22;;;14.79;96.04
62864;BME280;48954;59.950;11.014;2023-09-19T04:32:13;97307.56;;;14.78;96.08
62864;BME280;48954;59.950;11.014;2023-09-19T04:34:54;97309.00;;;14.78;96.06
62864;BME280;48954;59.950;11.014;2023-09-19T04:37:23;97301.41;;;14.78;96.20
62864;BME280;48954;59.950;11.014;2023-09-19T04:39:53;97290.26;;;14.78;96.11
62864;BME280;48954;59.950;11.014;2023-09-19T04:42:20;97282.98;;;14.78;96.11
62864;BME280;48954;59.950;11.014;2023-09-19T04:45:02;97274.69;;;14.78;95.99
62864;BME280;48954;59.950;11.014;2023-09-19T04:47:42;97269.25;;;14.77;95.90
62864;BME280;48954;59.950;11.014;2023-09-19T04:50:36;97262.79;;;14.77;95.91
62864;BME280;48954;59.950;11.014;2023-09-19T04:53:20;97251.25;;;14.76;96.06
62864;BME280;48954;59.950;11.014;2023-09-19T04:56:00;97243.35;;;14.76;96.01
62864;BME280;48954;59.950;11.014;2023-09-19T04:59:29;97229.39;;;14.75;95.95
62864;BME280;48954;59.950;11.014;2023-09-19T05:02:18;97224.60;;;14.74;95.92
62864;BME280;48954;59.950;11.014;2023-09-19T05:05:11;97221.95;;;14.73;96.08
62864;BME280;48954;59.950;11.014;2023-09-19T05:14:35;97183.38;;;14.68;95.98
62864;BME280;48954;59.950;11.014;2023-09-19T05:17:51;97183.20;;;14.67;96.17
62864;BME280;48954;59.950;11.014;2023-09-19T05:21:15;97172.27;;;14.63;96.14
62864;BME280;48954;59.950;11.014;2023-09-19T05:24:00;97166.60;;;14.60;96.21
62864;BME280;48954;59.950;11.014;2023-09-19T05:26:41;97160.61;;;14.57;96.23
62864;BME280;48954;59.950;11.014;2023-09-19T05:29:10;97152.91;;;14.56;96.25
62864;BME280;48954;59.950;11.014;2023-09-19T05:31:40;97146.66;;;14.54;96.25
62864;BME280;48954;59.950;11.014;2023-09-19T05:34:06;97136.95;;;14.52;96.21
62864;BME280;48954;59.950;11.014;2023-09-19T05:36:36;97129.25;;;14.50;96.31
62864;BME280;48954;59.950;11.014;2023-09-19T05:39:06;97124.87;;;14.49;96.41
62864;BME280;48954;59.950;11.014;2023-09-19T05:41:33;97126.42;;;14.47;96.41
62864;BME280;48954;59.950;11.014;2023-09-19T05:43:59;97131.67;;;14.47;96.37
62864;BME280;48954;59.950;11.014;2023-09-19T05:46:42;97134.35;;;14.47;96.40
62864;BME280;48954;59.950;11.014;2023-09-19T05:49:12;97137.52;;;14.47;96.50
62864;BME280;48954;59.950;11.014;2023-09-19T05:51:38;97125.41;;;14.47;96.43
62864;BME280;48954;59.950;11.014;2023-09-19T05:54:05;97128.15;;;14.48;96.51
62864;BME280;48954;59.950;11.014;2023-09-19T05:56:32;97118.21;;;14.47;96.32
62864;BME280;48954;59.950;11.014;2023-09-19T05:59:00;97111.52;;;14.47;96.31
62864;BME280;48954;59.950;11.014;2023-09-19T06:01:28;97111.85;;;14.46;96.21
62864;BME280;48954;59.950;11.014;2023-09-19T06:03:54;97120.98;;;14.47;96.27
62864;BME280;48954;59.950;11.014;2023-09-19T06:06:20;97119.26;;;14.47;96.22
62864;BME280;48954;59.950;11.014;2023-09-19T06:08:46;97116.89;;;14.46;96.15
62864;BME280;48954;59.950;11.014;2023-09-19T06:11:21;97123.77;;;14.47;96.08
62864;BME280;48954;59.950;11.014;2023-09-19T06:13:50;97117.93;;;14.46;96.13
62864;BME280;48954;59.950;11.014;2023-09-19T06:16:26;97119.45;;;14.45;96.03
62864;BME280;48954;59.950;11.014;2023-09-19T06:19:09;97125.81;;;14.44;95.97
62864;BME280;48954;59.950;11.014;2023-09-19T06:21:50;97126.74;;;14.43;95.81
62864;BME280;48954;59.950;11.014;2023-09-19T06:24:16;97126.86;;;14.40;95.68
62864;BME280;48954;59.950;11.014;2023-09-19T06:26:43;97129.66;;;14.38;95.43
62864;BME280;48954;59.950;11.014;2023-09-19T06:29:20;97123.33;;;14.34;95.31
62864;BME280;48954;59.950;11.014;2023-09-19T06:32:13;97121.45;;;14.30;95.18
62864;BME280;48954;59.950;11.014;2023-09-19T06:34:42;97124.36;;;14.27;94.93
62864;BME280;48954;59.950;11.014;2023-09-19T06:37:12;97126.09;;;14.22;94.67
62864;BME280;48954;59.950;11.014;2023-09-19T06:39:38;97119.61;;;14.17;94.28
62864;BME280;48954;59.950;11.014;2023-09-19T06:42:06;97117.32;;;14.13;94.16
62864;BME280;48954;59.950;11.014;2023-09-19T06:44:34;97122.23;;;14.10;94.08
62864;BME280;48954;59.950;11.014;2023-09-19T06:47:04;97123.67;;;14.07;93.97
62864;BME280;48954;59.950;11.014;2023-09-19T06:49:35;97123.56;;;14.02;93.78
62864;BME280;48954;59.950;11.014;2023-09-19T06:52:07;97120.91;;;13.98;93.76
62864;BME280;48954;59.950;11.014;2023-09-19T06:55:01;97119.71;;;13.93;93.66
62864;BME280;48954;59.950;11.014;2023-09-19T06:57:29;97127.23;;;13.88;93.33
62864;BME280;48954;59.950;11.014;2023-09-19T06:59:59;97127.66;;;13.85;93.24
62864;BME280;48954;59.950;11.014;2023-09-19T07:05:32;97128.42;;;13.78;92.96
62864;BME280;48954;59.950;11.014;2023-09-19T07:08:06;97124.80;;;13.73;92.73
62864;BME280;48954;59.950;11.014;2023-09-19T07:10:40;97123.19;;;13.69;92.63
62864;BME280;48954;59.950;11.014;2023-09-19T07:14:04;97121.42;;;13.67;92.41
62864;BME280;48954;59.950;11.014;2023-09-19T07:16:30;97119.27;;;13.65;92.28
62864;BME280;48954;59.950;11.014;2023-09-19T07:19:11;97114.77;;;13.63;92.08
62864;BME280;48954;59.950;11.014;2023-09-19T07:22:00;97108.75;;;13.62;92.25
62864;BME280;48954;59.950;11.014;2023-09-19T07:24:27;97108.97;;;13.62;92.29
62864;BME280;48954;59.950;11.014;2023-09-19T07:26:57;97111.67;;;13.69;92.25
62864;BME280;48954;59.950;11.014;2023-09-19T07:29:23;97112.09;;;13.73;92.31
62864;BME280;48954;59.950;11.014;2023-09-19T07:31:49;97111.98;;;13.78;92.18
62864;BME280;48954;59.950;11.014;2023-09-19T07:34:20;97114.21;;;13.80;92.11
62864;BME280;48954;59.950;11.014;2023-09-19T07:36:58;97116.02;;;13.80;92.00
62864;BME280;48954;59.950;11.014;2023-09-19T07:39:39;97114.35;;;13.76;91.67
62864;BME280;48954;59.950;11.014;2023-09-19T07:42:17;97108.66;;;13.69;91.53
62864;BME280;48954;59.950;11.014;2023-09-19T07:44:59;97107.14;;;13.63;91.51
62864;BME280;48954;59.950;11.014;2023-09-19T07:47:50;97112.02;;;13.61;91.49
62864;BME280;48954;59.950;11.014;2023-09-19T07:50:24;97111.59;;;13.59;91.57
62864;BME280;48954;59.950;11.014;2023-09-19T07:52:55;97111.35;;;13.57;91.35
62864;BME280;48954;59.950;11.014;2023-09-19T07:55:35;97105.48;;;13.54;91.34
62864;BME280;48954;59.950;11.014;2023-09-19T07:58:02;97105.30;;;13.56;91.37
62864;BME280;48954;59.950;11.014;2023-09-19T08:01:05;97105.48;;;13.58;91.40
62864;BME280;48954;59.950;11.014;2023-09-19T08:03:43;97103.11;;;13.63;91.43
62864;BME280;48954;59.950;11.014;2023-09-19T08:06:24;97097.95;;;13.64;91.20
62864;BME280;48954;59.950;11.014;2023-09-19T08:08:51;97102.45;;;13.66;91.05
62864;BME280;48954;59.950;11.014;2023-09-19T08:11:25;97102.39;;;13.77;90.99
62864;BME280;48954;59.950;11.014;2023-09-19T08:14:08;97096.35;;;14.02;90.81
62864;BME280;48954;59.950;11.014;2023-09-19T08:19:37;97094.64;;;14.54;89.23
62864;BME280;48954;59.950;11.014;2023-09-19T08:22:23;97097.14;;;14.55;88.84
62864;BME280;48954;59.950;11.014;2023-09-19T08:25:30;97092.74;;;14.50;88.84
62864;BME280;48954;59.950;11.014;2023-09-19T08:28:12;97091.30;;;14.44;88.55
62864;BME280;48954;59.950;11.014;2023-09-19T08:30:43;97080.98;;;14.36;88.56
62864;BME280;48954;59.950;11.014;2023-09-19T08:33:24;97080.09;;;14.27;88.46
62864;BME280;48954;59.950;11.014;2023-09-19T08:36:06;97076.81;;;14.22;88.65
62864;BME280;48954;59.950;11.014;2023-09-19T08:38:34;97074.15;;;14.19;88.69
62864;BME280;48954;59.950;11.014;2023-09-19T08:42:05;97076.64;;;14.22;88.83
62864;BME280;48954;59.950;11.014;2023-09-19T08:44:59;97080.87;;;14.30;88.70
62864;BME280;48954;59.950;11.014;2023-09-19T08:51:25;97075.69;;;14.31;88.84
62864;BME280;48954;59.950;11.014;2023-09-19T09:00:33;97069.21;;;14.20;88.01
62864;BME280;48954;59.950;11.014;2023-09-19T09:03:38;97070.91;;;14.18;87.95
62864;BME280;48954;59.950;11.014;2023-09-19T09:09:52;97068.95;;;14.10;87.80
62864;BME280;48954;59.950;11.014;2023-09-19T09:12:53;97064.08;;;14.16;88.08
62864;BME280;48954;59.950;11.014;2023-09-19T09:15:55;97058.92;;;14.35;88.23
62864;BME280;48954;59.950;11.014;2023-09-19T09:28:19;97067.62;;;14.97;87.36
62864;BME280;48954;59.950;11.014;2023-09-19T09:33:58;97065.22;;;15.02;86.13
62864;BME280;48954;59.950;11.014;2023-09-19T09:46:12;97073.74;;;15.03;84.47
62864;BME280;48954;59.950;11.014;2023-09-19T09:58:23;97091.11;;;14.93;84.05
62864;BME280;48954;59.950;11.014;2023-09-19T10:07:23;97095.77;;;14.52;83.48
62864;BME280;48954;59.950;11.014;2023-09-19T10:18:30;97092.73;;;14.31;84.05
62864;BME280;48954;59.950;11.014;2023-09-19T10:25:09;97093.61;;;14.40;83.47
62864;BME280;48954;59.950;11.014;2023-09-19T10:28:11;97091.85;;;14.44;83.14
62864;BME280;48954;59.950;11.014;2023-09-19T10:34:17;97092.26;;;14.44;82.43
62864;BME280;48954;59.950;11.014;2023-09-19T10:37:20;97096.21;;;14.44;82.41
62864;BME280;48954;59.950;11.014;2023-09-19T10:40:05;97100.13;;;14.42;82.34
62864;BME280;48954;59.950;11.014;2023-09-19T10:43:15;97104.01;;;14.42;82.37
62864;BME280;48954;59.950;11.014;2023-09-19T10:46:01;97101.96;;;14.44;82.33
62864;BME280;48954;59.950;11.014;2023-09-19T10:48:51;97107.33;;;14.49;82.21
62864;BME280;48954;59.950;11.014;2023-09-19T11:07:15;97133.31;;;14.69;81.05
62864;BME280;48954;59.950;11.014;2023-09-19T11:09:56;97135.61;;;14.74;80.95
62864;BME280;48954;59.950;11.014;2023-09-19T11:26:49;97147.15;;;14.95;76.62
62864;BME280;48954;59.950;11.014;2023-09-19T11:30:25;97148.58;;;14.89;76.84
62864;BME280;48954;59.950;11.014;2023-09-19T11:36:35;97160.64;;;14.75;76.20
62864;BME280;48954;59.950;11.014;2023-09-19T11:42:52;97171.23;;;14.97;76.42
62864;BME280;48954;59.950;11.014;2023-09-19T11:46:01;97174.27;;;15.08;75.37
62864;BME280;48954;59.950;11.014;2023-09-19T11:51:44;97170.26;;;15.19;74.43
62864;BME280;48954;59.950;11.014;2023-09-19T11:54:47;97161.41;;;15.35;73.86
62864;BME280;48954;59.950;11.014;2023-09-19T12:03:41;97169.51;;;15.56;71.10
62864;BME280;48954;59.950;11.014;2023-09-19T12:06:24;97176.77;;;15.49;70.63
62864;BME280;48954;59.950;11.014;2023-09-19T12:09:24;97175.27;;;15.39;70.37
62864;BME280;48954;59.950;11.014;2023-09-19T12:12:29;97180.19;;;15.22;69.78
62864;BME280;48954;59.950;11.014;2023-09-19T12:15:32;97175.71;;;15.08;70.38
62864;BME280;48954;59.950;11.014;2023-09-19T12:30:03;97188.56;;;14.85;67.72
62864;BME280;48954;59.950;11.014;2023-09-19T12:41:31;97192.18;;;14.72;66.87
62864;BME280;48954;59.950;11.014;2023-09-19T12:53:46;97191.70;;;15.10;64.85
62864;BME280;48954;59.950;11.014;2023-09-19T13:09:13;97200.73;;;15.52;63.73
